Terminal Aerodrome Forecast
Issued by NWS

Home | Current Version | Previous Version | Text Only | Print | Product List | Glossary On
Versions: 1 2 3 4 5 6 7 8 9 10 11 12 13
054
FTUS43 KMQT 091133
TAFIWD
TAF
KIWD 091133Z 0912/1012 34015G21KT 1 1/2SM -SHSN BLSN OVC008
      TEMPO 0912/0915 3/4SM -SHSN BLSN
     FM091800 33014G22KT 2SM -SHSN BLSN OVC015
     FM092000 33014G22KT 3SM -SHSN BLSN OVC015
     FM100100 34011G17KT 2SM -SHSN OVC015
      AMD LTD TO CLD VIS AND WIND=

USA.gov is the U.S. government's official web portal to all federal, state and local government web resources and services.